createdAt,value
2023-03-29T00:00:16.834Z,98470.45
2023-03-29T00:03:05.305Z,98472.77
2023-03-29T00:05:36.253Z,98472.02
2023-03-29T00:08:04.606Z,98467.98
2023-03-29T00:10:34.242Z,98469.04
2023-03-29T00:13:03.176Z,98468.71
2023-03-29T00:15:31.392Z,98469.44
2023-03-29T00:17:59.393Z,98468.80
2023-03-29T00:20:28.914Z,98474.91
2023-03-29T00:22:56.983Z,98477.09
2023-03-29T00:25:25.012Z,98476.27
2023-03-29T00:27:53.027Z,98480.17
2023-03-29T00:30:21.081Z,98479.56
2023-03-29T00:32:49.015Z,98481.30
2023-03-29T00:35:17.251Z,98478.25
2023-03-29T00:37:47.249Z,98474.33
2023-03-29T00:40:15.700Z,98468.73
2023-03-29T00:42:46.737Z,98465.19
2023-03-29T00:45:27.676Z,98464.55
2023-03-29T00:48:04.728Z,98465.33
2023-03-29T00:50:57.424Z,98467.18
2023-03-29T00:53:33.503Z,98468.58
2023-03-29T00:56:05.395Z,98467.86
2023-03-29T00:59:02.379Z,98470.12
2023-03-29T01:01:42.248Z,98462.94
2023-03-29T01:04:26.043Z,98465.34
2023-03-29T01:06:59.356Z,98463.79
2023-03-29T01:09:30.475Z,98461.96
2023-03-29T01:12:03.017Z,98459.65
2023-03-29T01:14:41.891Z,98453.95
2023-03-29T01:17:12.951Z,98459.06
2023-03-29T01:19:47.988Z,98456.84
2023-03-29T01:22:18.833Z,98457.85
2023-03-29T01:25:14.618Z,98460.92
2023-03-29T01:27:51.663Z,98457.33
2023-03-29T01:30:29.871Z,98456.27
2023-03-29T01:33:04.316Z,98450.61
2023-03-29T01:36:04.921Z,98453.30
2023-03-29T01:38:51.734Z,98450.29
2023-03-29T01:41:20.270Z,98444.72
2023-03-29T01:43:51.448Z,98443.16
2023-03-29T01:46:26.540Z,98439.83
2023-03-29T01:49:03.638Z,98436.05
2023-03-29T01:52:01.301Z,98433.29
2023-03-29T01:54:36.169Z,98427.77
2023-03-29T01:57:07.053Z,98431.17
2023-03-29T01:59:38.683Z,98431.85
2023-03-29T02:02:11.983Z,98431.21
2023-03-29T02:04:48.061Z,98437.01
2023-03-29T02:07:19.388Z,98435.66
2023-03-29T02:09:50.100Z,98436.80
2023-03-29T02:12:18.957Z,98441.99
2023-03-29T02:14:46.956Z,98439.33
2023-03-29T02:17:24.482Z,98436.84
2023-03-29T02:19:59.416Z,98438.89
2023-03-29T02:22:37.253Z,98437.58
2023-03-29T02:25:08.611Z,98431.48
2023-03-29T02:27:38.125Z,98436.00
2023-03-29T02:30:09.076Z,98437.86
2023-03-29T02:32:51.963Z,98437.61
2023-03-29T02:35:35.173Z,98440.05
2023-03-29T02:38:07.102Z,98442.73
2023-03-29T02:40:37.791Z,98440.48
2023-03-29T02:43:08.415Z,98435.33
2023-03-29T02:45:39.768Z,98434.48
2023-03-29T02:48:12.570Z,98437.61
2023-03-29T02:50:43.668Z,98438.63
2023-03-29T02:53:26.810Z,98438.46
2023-03-29T02:55:55.605Z,98439.32
2023-03-29T02:58:26.682Z,98437.50
2023-03-29T03:00:57.162Z,98434.88
2023-03-29T03:03:25.610Z,98437.73
2023-03-29T03:05:54.001Z,98438.25
2023-03-29T03:08:22.006Z,98441.27
2023-03-29T03:10:50.113Z,98445.44
2023-03-29T03:13:20.826Z,98442.48
2023-03-29T03:15:49.457Z,98444.81
2023-03-29T03:18:17.659Z,98441.77
2023-03-29T03:20:58.281Z,98448.05
2023-03-29T03:23:26.214Z,98444.48
2023-03-29T03:25:55.334Z,98444.98
2023-03-29T03:28:24.431Z,98444.19
2023-03-29T03:30:53.066Z,98445.11
2023-03-29T03:33:56.785Z,98439.33
2023-03-29T03:36:51.176Z,98444.05
2023-03-29T03:39:19.185Z,98445.80
2023-03-29T03:41:47.136Z,98445.80
2023-03-29T03:44:15.071Z,98446.58
2023-03-29T03:46:44.116Z,98443.33
2023-03-29T03:49:12.252Z,98446.99
2023-03-29T03:51:44.390Z,98448.75
2023-03-29T03:54:12.725Z,98449.45
2023-03-29T03:57:01.121Z,98450.45
2023-03-29T03:59:39.768Z,98454.21
2023-03-29T04:02:11.906Z,98454.86
2023-03-29T04:04:40.753Z,98461.83
2023-03-29T04:07:13.203Z,98463.36
2023-03-29T04:10:09.279Z,98457.43
2023-03-29T04:12:47.204Z,98460.52
2023-03-29T04:15:17.950Z,98452.00
2023-03-29T04:17:51.543Z,98449.66
2023-03-29T04:20:19.790Z,98445.89
2023-03-29T04:22:47.811Z,98440.92
2023-03-29T04:26:15.782Z,98442.85
2023-03-29T04:29:04.913Z,98446.05
2023-03-29T04:31:40.219Z,98443.23
2023-03-29T04:34:29.358Z,98440.45
2023-03-29T04:36:58.926Z,98439.26
2023-03-29T04:39:33.864Z,98437.59
2023-03-29T04:42:03.164Z,98435.73
2023-03-29T04:44:33.769Z,98439.54
2023-03-29T04:47:02.268Z,98436.98
2023-03-29T04:49:30.556Z,98434.30
2023-03-29T04:52:01.010Z,98436.94
2023-03-29T04:54:30.375Z,98438.83
2023-03-29T04:57:17.231Z,98439.42
2023-03-29T04:59:56.986Z,98438.86
2023-03-29T05:02:50.941Z,98439.84
2023-03-29T05:05:19.476Z,98438.01
2023-03-29T05:07:48.055Z,98436.63
2023-03-29T05:10:16.440Z,98439.54
2023-03-29T05:12:44.539Z,98437.98
2023-03-29T05:15:12.522Z,98430.28
2023-03-29T05:17:40.858Z,98429.02
2023-03-29T05:20:12.920Z,98427.52
2023-03-29T05:22:41.211Z,98430.18
2023-03-29T05:25:11.888Z,98428.73
2023-03-29T05:27:42.533Z,98432.24
2023-03-29T05:30:11.935Z,98429.95
2023-03-29T05:32:48.197Z,98429.70
2023-03-29T05:35:17.661Z,98428.38
2023-03-29T05:37:47.418Z,98425.05
2023-03-29T05:40:15.513Z,98430.70
2023-03-29T05:43:02.929Z,98432.34
2023-03-29T05:45:32.592Z,98435.25
2023-03-29T05:48:00.881Z,98434.67
2023-03-29T05:50:30.249Z,98434.63
2023-03-29T05:52:58.685Z,98432.04
2023-03-29T05:55:27.120Z,98432.83
2023-03-29T05:57:55.908Z,98431.92
2023-03-29T06:00:26.853Z,98430.13
2023-03-29T06:03:17.631Z,98434.52
2023-03-29T06:05:56.328Z,98427.20
2023-03-29T06:08:26.302Z,98435.81
2023-03-29T06:11:09.147Z,98436.64
2023-03-29T06:13:55.953Z,98437.48
2023-03-29T06:16:24.187Z,98440.07
2023-03-29T06:18:53.326Z,98440.93
2023-03-29T06:21:22.350Z,98445.88
2023-03-29T06:23:50.502Z,98448.71
2023-03-29T06:26:19.192Z,98445.41
2023-03-29T06:28:51.417Z,98446.77
2023-03-29T06:31:21.173Z,98451.20
2023-03-29T06:33:50.928Z,98450.48
2023-03-29T06:36:45.970Z,98452.77
2023-03-29T06:39:14.563Z,98456.02
2023-03-29T06:41:57.982Z,98456.40
2023-03-29T06:44:44.149Z,98457.54
2023-03-29T06:47:19.774Z,98459.56
2023-03-29T06:49:47.735Z,98460.75
2023-03-29T06:52:30.283Z,98463.59
2023-03-29T06:55:02.041Z,98464.05
2023-03-29T06:57:30.880Z,98469.61
2023-03-29T06:59:59.299Z,98468.33
2023-03-29T07:02:44.513Z,98466.38
2023-03-29T07:05:14.662Z,98463.95
2023-03-29T07:07:55.507Z,98463.02
2023-03-29T07:10:54.061Z,98462.98
2023-03-29T07:13:46.341Z,98461.20
2023-03-29T07:16:18.148Z,98462.54
2023-03-29T07:18:48.995Z,98463.59
2023-03-29T07:21:28.912Z,98465.53
2023-03-29T07:24:01.827Z,98464.40
2023-03-29T07:26:30.620Z,98465.99
2023-03-29T07:29:00.275Z,98462.05
2023-03-29T07:31:33.140Z,98460.28
2023-03-29T07:34:20.923Z,98460.72
2023-03-29T07:36:48.998Z,98460.42
2023-03-29T07:39:17.752Z,98459.35
2023-03-29T07:41:58.128Z,98459.41
2023-03-29T07:44:27.246Z,98455.36
2023-03-29T07:46:56.315Z,98454.00
2023-03-29T07:50:15.100Z,98456.20
2023-03-29T07:52:44.478Z,98455.41
2023-03-29T07:55:14.040Z,98454.15
2023-03-29T07:58:05.447Z,98454.14
2023-03-29T08:00:34.232Z,98454.72
2023-03-29T08:03:17.221Z,98452.41
2023-03-29T08:05:45.462Z,98454.68
2023-03-29T08:08:16.404Z,98453.34
2023-03-29T08:10:52.022Z,98453.69
2023-03-29T08:13:42.938Z,98452.13
2023-03-29T08:16:23.079Z,98451.86
2023-03-29T08:18:56.777Z,98457.80
2023-03-29T08:21:26.587Z,98453.46
2023-03-29T08:23:54.698Z,98450.88
2023-03-29T08:26:27.341Z,98454.50
2023-03-29T08:28:55.993Z,98449.45
2023-03-29T08:31:24.640Z,98443.13
2023-03-29T08:33:53.389Z,98441.45
2023-03-29T08:36:40.370Z,98444.35
2023-03-29T08:39:19.543Z,98442.84
2023-03-29T08:42:04.964Z,98437.54
2023-03-29T08:44:58.007Z,98437.89
2023-03-29T08:47:45.543Z,98437.41
2023-03-29T08:50:15.151Z,98435.22
2023-03-29T08:52:51.663Z,98429.98
2023-03-29T08:55:38.124Z,98432.13
2023-03-29T08:58:29.133Z,98428.04
2023-03-29T09:01:00.400Z,98424.78
2023-03-29T09:03:44.063Z,98427.89
2023-03-29T09:06:19.265Z,98419.73
2023-03-29T09:08:49.873Z,98420.14
2023-03-29T09:11:24.677Z,98411.56
2023-03-29T09:14:13.331Z,98411.35
2023-03-29T09:16:52.106Z,98416.64
2023-03-29T09:19:31.559Z,98413.89
2023-03-29T09:22:09.600Z,98406.94
2023-03-29T09:24:56.490Z,98402.14
2023-03-29T09:27:50.425Z,98402.80
2023-03-29T09:30:34.864Z,98403.04
2023-03-29T09:33:12.748Z,98398.38
2023-03-29T09:36:09.236Z,98396.13
2023-03-29T09:38:41.495Z,98385.77
2023-03-29T09:41:28.007Z,98395.95
2023-03-29T09:44:00.373Z,98388.60
2023-03-29T09:46:42.696Z,98387.67
2023-03-29T09:49:17.765Z,98394.57
2023-03-29T09:51:49.164Z,98390.71
2023-03-29T09:54:17.377Z,98394.16
2023-03-29T09:57:23.385Z,98388.59
2023-03-29T09:59:52.652Z,98386.68
2023-03-29T10:02:21.861Z,98379.83
2023-03-29T10:05:03.936Z,98378.04
2023-03-29T10:07:44.663Z,98375.09
2023-03-29T10:10:34.638Z,98373.26
2023-03-29T10:13:11.346Z,98369.90
2023-03-29T10:15:39.514Z,98371.41
2023-03-29T10:18:11.912Z,98363.63
2023-03-29T10:20:40.767Z,98358.61
2023-03-29T10:23:17.375Z,98355.28
2023-03-29T10:25:45.784Z,98355.57
2023-03-29T10:28:17.724Z,98357.92
2023-03-29T10:30:52.789Z,98356.52
2023-03-29T10:33:24.317Z,98357.00
2023-03-29T10:35:52.646Z,98357.39
2023-03-29T10:38:24.170Z,98356.37
2023-03-29T10:40:53.894Z,98353.21
2023-03-29T10:43:29.808Z,98352.22
2023-03-29T10:47:14.059Z,98353.32
2023-03-29T10:49:44.945Z,98349.34
2023-03-29T10:52:17.287Z,98340.15
2023-03-29T10:54:46.520Z,98340.15
2023-03-29T10:57:56.324Z,98338.09
2023-03-29T11:00:59.970Z,98340.80
2023-03-29T11:03:41.559Z,98338.79
2023-03-29T11:06:16.628Z,98337.84
2023-03-29T11:08:57.841Z,98330.95
2023-03-29T11:11:45.450Z,98332.70
2023-03-29T11:14:31.685Z,98325.07
2023-03-29T11:17:22.788Z,98319.50
2023-03-29T11:19:56.625Z,98317.55
2023-03-29T11:22:50.501Z,98318.95
2023-03-29T11:25:38.580Z,98311.23
2023-03-29T11:28:20.280Z,98308.17
2023-03-29T11:31:06.983Z,98311.29
2023-03-29T11:33:55.120Z,98296.58
2023-03-29T11:36:39.072Z,98300.06
2023-03-29T11:39:16.076Z,98292.09
2023-03-29T11:41:49.006Z,98285.79
2023-03-29T11:44:22.687Z,98286.59
2023-03-29T11:47:00.546Z,98278.39
2023-03-29T11:49:34.329Z,98272.61
2023-03-29T11:52:20.581Z,98266.77
2023-03-29T11:54:53.673Z,98271.36
2023-03-29T11:57:29.108Z,98273.35
2023-03-29T12:00:07.108Z,98270.52
2023-03-29T12:02:46.362Z,98257.80
2023-03-29T12:05:23.092Z,98250.02
2023-03-29T12:07:57.098Z,98250.73
2023-03-29T12:10:31.359Z,98249.31
2023-03-29T12:13:06.568Z,98250.05
2023-03-29T12:15:42.832Z,98247.77
2023-03-29T12:18:41.032Z,98249.98
2023-03-29T12:21:14.214Z,98240.18
2023-03-29T12:23:44.778Z,98238.38
2023-03-29T12:26:50.294Z,98234.52
2023-03-29T12:29:46.707Z,98228.83
2023-03-29T12:32:31.681Z,98225.54
2023-03-29T12:35:22.263Z,98224.71
2023-03-29T12:38:21.657Z,98226.21
2023-03-29T12:41:23.145Z,98227.10
2023-03-29T12:44:24.028Z,98222.17
2023-03-29T12:47:00.476Z,98212.38
2023-03-29T12:49:33.451Z,98212.30
2023-03-29T12:52:05.649Z,98213.63
2023-03-29T12:54:33.921Z,98206.73
2023-03-29T12:57:20.010Z,98213.42
2023-03-29T12:59:49.498Z,98208.95
2023-03-29T13:02:18.186Z,98202.05
2023-03-29T13:04:58.050Z,98198.87
2023-03-29T13:07:30.600Z,98195.52
2023-03-29T13:10:28.252Z,98183.08
2023-03-29T13:12:56.252Z,98181.73
2023-03-29T13:15:27.384Z,98188.92
2023-03-29T13:18:32.326Z,98190.81
2023-03-29T13:21:31.027Z,98182.95
2023-03-29T13:24:16.971Z,98176.80
2023-03-29T13:26:51.824Z,98176.87
2023-03-29T13:29:43.327Z,98178.05
2023-03-29T13:32:36.192Z,98175.07
2023-03-29T13:35:11.705Z,98173.64
2023-03-29T13:38:01.390Z,98177.46
2023-03-29T13:40:43.513Z,98174.50
2023-03-29T13:43:18.656Z,98161.83
2023-03-29T13:45:58.732Z,98164.42
2023-03-29T13:48:35.826Z,98166.66
2023-03-29T13:51:20.247Z,98162.70
2023-03-29T13:53:54.922Z,98164.48
2023-03-29T13:56:27.226Z,98164.43
2023-03-29T13:59:05.727Z,98160.41
2023-03-29T14:01:46.017Z,98157.16
2023-03-29T14:04:30.629Z,98149.27
2023-03-29T14:07:01.211Z,98152.86
2023-03-29T14:09:32.093Z,98147.56
2023-03-29T14:12:01.227Z,98145.92
2023-03-29T14:14:32.260Z,98143.02
2023-03-29T14:17:00.981Z,98142.72
2023-03-29T14:19:34.253Z,98138.31
2023-03-29T14:22:07.732Z,98141.42
2023-03-29T14:25:29.390Z,98141.34
2023-03-29T14:27:57.568Z,98131.91
2023-03-29T14:30:28.800Z,98132.32
2023-03-29T14:32:56.947Z,98131.17
2023-03-29T14:35:33.441Z,98127.20
2023-03-29T14:38:02.483Z,98126.36
2023-03-29T14:40:30.918Z,98126.68
2023-03-29T14:43:06.749Z,98128.06
2023-03-29T14:45:35.457Z,98129.48
2023-03-29T14:48:04.625Z,98114.94
2023-03-29T14:50:32.917Z,98123.20
2023-03-29T14:53:01.820Z,98120.17
2023-03-29T14:55:31.075Z,98121.86
2023-03-29T14:58:00.338Z,98115.89
2023-03-29T15:00:30.247Z,98106.73
2023-03-29T15:03:03.123Z,98103.83
2023-03-29T15:05:44.002Z,98106.98
2023-03-29T15:08:27.622Z,98108.57
2023-03-29T15:10:55.694Z,98109.16
2023-03-29T15:13:25.393Z,98104.37
2023-03-29T15:15:59.138Z,98102.52
2023-03-29T15:18:39.932Z,98104.26
2023-03-29T15:21:10.244Z,98098.32
2023-03-29T15:23:42.179Z,98094.59
2023-03-29T15:26:23.375Z,98092.58
2023-03-29T15:28:57.642Z,98089.12
2023-03-29T15:31:32.481Z,98082.82
2023-03-29T15:34:06.303Z,98081.40
2023-03-29T15:36:42.356Z,98084.50
2023-03-29T15:39:15.566Z,98078.77
2023-03-29T15:41:45.340Z,98076.04
2023-03-29T15:44:17.399Z,98075.45
2023-03-29T15:46:45.467Z,98070.87
2023-03-29T15:49:14.351Z,98071.31
2023-03-29T15:51:42.322Z,98065.49
2023-03-29T15:54:10.594Z,98064.92
2023-03-29T15:57:22.872Z,98064.62
2023-03-29T16:01:07.899Z,98065.17
2023-03-29T16:04:24.657Z,98063.58
2023-03-29T16:06:55.693Z,98062.10
2023-03-29T16:09:23.774Z,98061.08
2023-03-29T16:11:56.591Z,98055.23
2023-03-29T16:14:43.133Z,98062.63
2023-03-29T16:18:04.871Z,98062.23
2023-03-29T16:20:32.958Z,98065.10
2023-03-29T16:23:01.187Z,98066.17
2023-03-29T16:25:29.102Z,98064.40
2023-03-29T16:27:57.089Z,98061.64
2023-03-29T16:30:25.338Z,98054.79
2023-03-29T16:32:53.343Z,98060.27
2023-03-29T16:35:31.294Z,98059.36
2023-03-29T16:37:59.398Z,98057.28
2023-03-29T16:40:28.022Z,98053.44
2023-03-29T16:42:56.074Z,98050.99
2023-03-29T16:45:24.032Z,98048.11
2023-03-29T16:47:51.981Z,98047.43
2023-03-29T16:50:21.901Z,98045.55
2023-03-29T16:52:51.636Z,98048.75
2023-03-29T16:55:22.268Z,98049.40
2023-03-29T16:57:51.030Z,98048.05
2023-03-29T17:00:20.350Z,98047.40
2023-03-29T17:02:51.354Z,98049.50
2023-03-29T17:05:19.696Z,98052.38
2023-03-29T17:07:47.848Z,98052.98
2023-03-29T17:10:16.180Z,98052.56
2023-03-29T17:12:45.596Z,98055.78
2023-03-29T17:15:13.792Z,98050.70
2023-03-29T17:17:42.042Z,98057.40
2023-03-29T17:20:12.389Z,98060.06
2023-03-29T17:22:41.525Z,98057.06
2023-03-29T17:25:10.176Z,98060.58
2023-03-29T17:27:38.268Z,98062.37
2023-03-29T17:30:07.240Z,98059.46
2023-03-29T17:32:35.883Z,98066.73
2023-03-29T17:35:04.812Z,98065.09
2023-03-29T17:37:32.856Z,98064.89
2023-03-29T17:40:01.021Z,98069.99
2023-03-29T17:42:28.990Z,98071.06
2023-03-29T17:44:57.008Z,98072.73
2023-03-29T17:47:25.309Z,98074.94
2023-03-29T17:49:53.427Z,98077.98
2023-03-29T17:52:21.617Z,98078.25
2023-03-29T17:54:49.655Z,98081.98
2023-03-29T17:57:17.789Z,98085.71
2023-03-29T17:59:46.243Z,98088.05
2023-03-29T18:02:19.365Z,98091.05
2023-03-29T18:04:47.683Z,98094.73
2023-03-29T18:07:16.013Z,98094.11
2023-03-29T18:09:44.132Z,98091.70
2023-03-29T18:12:12.545Z,98092.55
2023-03-29T18:14:40.787Z,98091.19
2023-03-29T18:17:09.103Z,98087.91
2023-03-29T18:19:37.288Z,98088.73
2023-03-29T18:22:05.440Z,98087.12
2023-03-29T18:24:33.345Z,98086.40
2023-03-29T18:27:01.461Z,98092.23
2023-03-29T18:29:29.638Z,98098.77
2023-03-29T18:32:02.836Z,98100.05
2023-03-29T18:34:31.348Z,98112.20
2023-03-29T18:36:59.313Z,98116.15
2023-03-29T18:39:27.520Z,98112.02
2023-03-29T18:41:55.432Z,98110.48
2023-03-29T18:44:27.323Z,98113.86
2023-03-29T18:46:56.379Z,98115.09
2023-03-29T18:49:25.820Z,98111.35
2023-03-29T18:51:57.335Z,98105.39
2023-03-29T18:54:35.178Z,98094.49
2023-03-29T18:57:06.868Z,98090.08
2023-03-29T18:59:36.609Z,98088.07
2023-03-29T19:02:04.739Z,98081.20
2023-03-29T19:04:32.837Z,98078.63
2023-03-29T19:07:01.496Z,98081.50
2023-03-29T19:09:30.218Z,98075.33
2023-03-29T19:11:58.672Z,98074.70
2023-03-29T19:14:26.842Z,98086.59
2023-03-29T19:16:54.912Z,98086.65
2023-03-29T19:19:23.852Z,98077.87
2023-03-29T19:21:53.403Z,98075.83
2023-03-29T19:24:22.084Z,98077.66
2023-03-29T19:26:52.060Z,98076.98
2023-03-29T19:29:20.674Z,98078.15
2023-03-29T19:31:48.873Z,98086.53
2023-03-29T19:34:19.736Z,98089.23
2023-03-29T19:36:47.667Z,98087.39
2023-03-29T19:39:15.619Z,98091.30
2023-03-29T19:41:43.611Z,98096.40
2023-03-29T19:44:11.532Z,98095.40
2023-03-29T19:46:40.684Z,98101.66
2023-03-29T19:49:09.767Z,98107.88
2023-03-29T19:51:37.776Z,98108.13
2023-03-29T19:54:07.043Z,98104.95
2023-03-29T19:56:34.996Z,98100.71
2023-03-29T19:59:02.951Z,98098.77
2023-03-29T20:01:32.417Z,98093.18
2023-03-29T20:06:29.629Z,98093.00
2023-03-29T20:08:58.679Z,98094.31
2023-03-29T20:11:26.659Z,98099.58
2023-03-29T20:13:54.580Z,98101.30
2023-03-29T20:16:25.786Z,98097.45
2023-03-29T20:18:54.120Z,98094.61
2023-03-29T20:21:22.064Z,98089.34
2023-03-29T20:23:52.536Z,98076.99
2023-03-29T20:26:20.518Z,98073.50
2023-03-29T20:28:48.609Z,98074.81
2023-03-29T20:31:16.839Z,98078.75
2023-03-29T20:33:44.858Z,98078.84
2023-03-29T20:36:13.350Z,98082.15
2023-03-29T20:38:41.328Z,98075.68
2023-03-29T20:41:09.513Z,98078.33
2023-03-29T20:43:37.769Z,98076.26
2023-03-29T20:46:14.708Z,98074.53
2023-03-29T20:48:46.162Z,98070.33
2023-03-29T20:51:14.304Z,98065.46
2023-03-29T20:53:42.985Z,98067.15
2023-03-29T20:56:10.926Z,98065.73
2023-03-29T20:58:42.074Z,98066.97
2023-03-29T21:01:14.335Z,98064.77
2023-03-29T21:03:42.399Z,98054.27
2023-03-29T21:06:14.071Z,98049.88
2023-03-29T21:08:45.466Z,98046.02
2023-03-29T21:11:14.027Z,98042.81
2023-03-29T21:13:43.623Z,98041.15
2023-03-29T21:16:13.007Z,98036.92
2023-03-29T21:18:41.690Z,98036.37
2023-03-29T21:21:11.382Z,98037.15
2023-03-29T21:23:41.746Z,98041.33
2023-03-29T21:26:09.675Z,98040.10
2023-03-29T21:28:41.351Z,98044.97
2023-03-29T21:31:09.648Z,98044.65
2023-03-29T21:33:37.633Z,98045.14
2023-03-29T21:36:05.823Z,98043.84
2023-03-29T21:38:46.815Z,98041.52
2023-03-29T21:41:14.756Z,98040.34
2023-03-29T21:43:49.668Z,98038.45
2023-03-29T21:46:17.638Z,98040.36
2023-03-29T21:48:45.568Z,98041.03
2023-03-29T21:51:13.555Z,98040.67
2023-03-29T21:53:44.015Z,98031.84
2023-03-29T21:56:12.302Z,98030.73
2023-03-29T21:58:47.160Z,98032.94
2023-03-29T22:01:19.357Z,98033.95
2023-03-29T22:03:49.155Z,98035.46
2023-03-29T22:06:17.488Z,98029.26
2023-03-29T22:08:46.857Z,98025.31
2023-03-29T22:11:17.731Z,98020.02
2023-03-29T22:13:48.689Z,98020.04
2023-03-29T22:16:19.587Z,98023.56
2023-03-29T22:18:54.321Z,98024.38
2023-03-29T22:21:24.719Z,98021.70
2023-03-29T22:24:01.723Z,98019.83
2023-03-29T22:26:32.992Z,98014.94
2023-03-29T22:29:01.577Z,98013.58
2023-03-29T22:31:30.208Z,98013.85
2023-03-29T22:33:58.707Z,98013.25
2023-03-29T22:36:29.750Z,98006.75
2023-03-29T22:38:58.280Z,98005.02
2023-03-29T22:41:27.737Z,97998.69
2023-03-29T22:43:58.825Z,97995.34
2023-03-29T22:46:27.348Z,97995.30
2023-03-29T22:48:55.754Z,97995.52
2023-03-29T22:51:23.689Z,97993.44
2023-03-29T22:53:51.603Z,97993.23
2023-03-29T22:56:19.780Z,97991.12
2023-03-29T22:58:47.699Z,97990.82
2023-03-29T23:01:15.884Z,97990.05
2023-03-29T23:03:43.919Z,97989.52
2023-03-29T23:06:11.825Z,97989.57
2023-03-29T23:08:39.812Z,97982.52
2023-03-29T23:11:07.774Z,97990.48
2023-03-29T23:13:35.826Z,97981.71
2023-03-29T23:16:04.951Z,97973.81
2023-03-29T23:18:35.004Z,97977.47
2023-03-29T23:21:05.964Z,97975.20
2023-03-29T23:23:35.208Z,97972.18
2023-03-29T23:26:03.232Z,97968.74
2023-03-29T23:28:34.712Z,97969.20
2023-03-29T23:31:11.600Z,97969.10
2023-03-29T23:33:42.763Z,97968.73
2023-03-29T23:36:17.226Z,97966.48
2023-03-29T23:38:46.831Z,97975.53
2023-03-29T23:41:15.215Z,97970.33
2023-03-29T23:43:44.092Z,97973.56
2023-03-29T23:46:16.977Z,97970.50
2023-03-29T23:48:46.216Z,97967.30
2023-03-29T23:51:14.183Z,97964.23
2023-03-29T23:53:42.084Z,97957.65
2023-03-29T23:56:10.165Z,97955.38
2023-03-29T23:58:38.281Z,97952.06
